sensor_id;sensor_type;location;lat;lon;timestamp;pressure;altitude;pressure_sealevel;temperature;humidity
32033;BME280;31720;52.638;9.216;2023-04-02T00:01:45;101025.41;;;3.38;100.00
32033;BME280;31720;52.638;9.216;2023-04-02T00:08:51;101049.28;;;3.09;100.00
32033;BME280;31720;52.638;9.216;2023-04-02T00:11:56;101050.06;;;3.15;100.00
32033;BME280;31720;52.638;9.216;2023-04-02T00:15:00;101069.22;;;3.10;100.00
32033;BME280;31720;52.638;9.216;2023-04-02T00:18:03;101068.19;;;3.18;100.00
32033;BME280;31720;52.638;9.216;2023-04-02T00:21:11;101069.81;;;3.22;100.00
32033;BME280;31720;52.638;9.216;2023-04-02T00:24:16;101071.66;;;3.17;100.00
32033;BME280;31720;52.638;9.216;2023-04-02T00:27:20;101082.94;;;3.16;100.00
32033;BME280;31720;52.638;9.216;2023-04-02T00:30:23;101086.69;;;3.00;100.00
32033;BME280;31720;52.638;9.216;2023-04-02T00:33:26;101090.75;;;3.13;100.00
32033;BME280;31720;52.638;9.216;2023-04-02T00:36:29;101089.91;;;3.13;100.00
32033;BME280;31720;52.638;9.216;2023-04-02T00:39:37;101102.81;;;3.17;100.00
32033;BME280;31720;52.638;9.216;2023-04-02T00:42:40;101111.69;;;3.05;100.00
32033;BME280;31720;52.638;9.216;2023-04-02T00:45:46;101102.38;;;2.92;100.00
32033;BME280;31720;52.638;9.216;2023-04-02T00:48:53;101116.19;;;2.94;100.00
32033;BME280;31720;52.638;9.216;2023-04-02T00:52:00;101116.03;;;3.05;100.00
32033;BME280;31720;52.638;9.216;2023-04-02T00:55:06;101118.69;;;2.99;100.00
32033;BME280;31720;52.638;9.216;2023-04-02T00:58:16;101125.56;;;3.03;100.00
32033;BME280;31720;52.638;9.216;2023-04-02T01:01:23;101133.22;;;3.11;100.00
32033;BME280;31720;52.638;9.216;2023-04-02T01:04:28;101135.28;;;2.90;100.00
32033;BME280;31720;52.638;9.216;2023-04-02T01:07:46;101142.06;;;2.99;100.00
32033;BME280;31720;52.638;9.216;2023-04-02T01:10:58;101148.28;;;2.89;100.00
32033;BME280;31720;52.638;9.216;2023-04-02T01:14:11;101147.50;;;2.84;100.00
32033;BME280;31720;52.638;9.216;2023-04-02T01:17:27;101154.28;;;2.92;100.00
32033;BME280;31720;52.638;9.216;2023-04-02T01:20:47;101154.31;;;2.89;100.00
32033;BME280;31720;52.638;9.216;2023-04-02T01:24:01;101156.00;;;2.93;100.00
32033;BME280;31720;52.638;9.216;2023-04-02T01:27:05;101167.28;;;2.92;100.00
32033;BME280;31720;52.638;9.216;2023-04-02T01:30:15;101172.63;;;2.80;100.00
32033;BME280;31720;52.638;9.216;2023-04-02T01:33:18;101183.81;;;2.85;100.00
32033;BME280;31720;52.638;9.216;2023-04-02T01:36:24;101183.88;;;2.82;100.00
32033;BME280;31720;52.638;9.216;2023-04-02T01:39:38;101181.38;;;2.74;100.00
32033;BME280;31720;52.638;9.216;2023-04-02T01:42:49;101193.63;;;2.63;100.00
32033;BME280;31720;52.638;9.216;2023-04-02T01:45:56;101190.16;;;2.64;100.00
32033;BME280;31720;52.638;9.216;2023-04-02T01:48:59;101206.53;;;2.68;100.00
32033;BME280;31720;52.638;9.216;2023-04-02T01:52:02;101205.69;;;2.69;100.00
32033;BME280;31720;52.638;9.216;2023-04-02T01:55:06;101213.44;;;2.70;100.00
32033;BME280;31720;52.638;9.216;2023-04-02T01:58:09;101222.00;;;2.75;100.00
32033;BME280;31720;52.638;9.216;2023-04-02T02:01:14;101231.47;;;2.79;100.00
32033;BME280;31720;52.638;9.216;2023-04-02T02:04:18;101235.13;;;2.65;100.00
32033;BME280;31720;52.638;9.216;2023-04-02T02:07:20;101242.94;;;2.62;100.00
32033;BME280;31720;52.638;9.216;2023-04-02T02:10:25;101238.72;;;2.53;100.00
32033;BME280;31720;52.638;9.216;2023-04-02T02:13:27;101253.41;;;2.56;100.00
32033;BME280;31720;52.638;9.216;2023-04-02T02:16:30;101248.03;;;2.68;100.00
32033;BME280;31720;52.638;9.216;2023-04-02T02:19:35;101255.03;;;2.64;100.00
32033;BME280;31720;52.638;9.216;2023-04-02T02:22:40;101266.22;;;2.68;100.00
32033;BME280;31720;52.638;9.216;2023-04-02T02:25:44;101261.94;;;2.65;100.00
32033;BME280;31720;52.638;9.216;2023-04-02T02:28:48;101268.88;;;2.65;100.00
32033;BME280;31720;52.638;9.216;2023-04-02T02:31:54;101277.53;;;2.62;100.00
32033;BME280;31720;52.638;9.216;2023-04-02T02:35:01;101287.09;;;2.60;100.00
32033;BME280;31720;52.638;9.216;2023-04-02T02:38:24;101297.47;;;2.60;100.00
32033;BME280;31720;52.638;9.216;2023-04-02T02:41:32;101312.31;;;2.44;100.00
32033;BME280;31720;52.638;9.216;2023-04-02T02:44:39;101312.22;;;2.53;100.00
32033;BME280;31720;52.638;9.216;2023-04-02T02:47:44;101326.09;;;2.49;100.00
32033;BME280;31720;52.638;9.216;2023-04-02T02:50:48;101330.41;;;2.52;100.00
32033;BME280;31720;52.638;9.216;2023-04-02T02:53:53;101342.50;;;2.54;100.00
32033;BME280;31720;52.638;9.216;2023-04-02T02:57:00;101337.25;;;2.58;100.00
32033;BME280;31720;52.638;9.216;2023-04-02T03:00:04;101339.81;;;2.61;100.00
32033;BME280;31720;52.638;9.216;2023-04-02T03:03:12;101344.22;;;2.56;100.00
32033;BME280;31720;52.638;9.216;2023-04-02T03:06:16;101351.19;;;2.50;100.00
32033;BME280;31720;52.638;9.216;2023-04-02T03:09:28;101364.97;;;2.54;100.00
32033;BME280;31720;52.638;9.216;2023-04-02T03:12:40;101361.63;;;2.46;100.00
32033;BME280;31720;52.638;9.216;2023-04-02T03:15:52;101367.50;;;2.62;100.00
32033;BME280;31720;52.638;9.216;2023-04-02T03:19:03;101369.31;;;2.52;100.00
32033;BME280;31720;52.638;9.216;2023-04-02T03:22:11;101377.19;;;2.43;100.00
32033;BME280;31720;52.638;9.216;2023-04-02T03:25:21;101384.97;;;2.43;100.00
32033;BME280;31720;52.638;9.216;2023-04-02T03:28:28;101388.31;;;2.56;100.00
32033;BME280;31720;52.638;9.216;2023-04-02T03:31:32;101390.88;;;2.57;100.00
32033;BME280;31720;52.638;9.216;2023-04-02T03:34:40;101398.69;;;2.56;100.00
32033;BME280;31720;52.638;9.216;2023-04-02T03:37:45;101400.38;;;2.58;100.00
32033;BME280;31720;52.638;9.216;2023-04-02T03:40:57;101410.16;;;2.30;100.00
32033;BME280;31720;52.638;9.216;2023-04-02T03:44:00;101406.56;;;2.46;100.00
32033;BME280;31720;52.638;9.216;2023-04-02T03:47:09;101417.63;;;2.62;100.00
32033;BME280;31720;52.638;9.216;2023-04-02T03:50:17;101425.53;;;2.54;100.00
32033;BME280;31720;52.638;9.216;2023-04-02T03:53:22;101429.81;;;2.56;100.00
32033;BME280;31720;52.638;9.216;2023-04-02T03:56:28;101441.09;;;2.51;100.00
32033;BME280;31720;52.638;9.216;2023-04-02T03:59:36;101448.84;;;2.56;100.00
32033;BME280;31720;52.638;9.216;2023-04-02T04:02:44;101449.69;;;2.57;100.00
32033;BME280;31720;52.638;9.216;2023-04-02T04:05:50;101453.19;;;2.56;100.00
32033;BME280;31720;52.638;9.216;2023-04-02T04:08:55;101463.56;;;2.56;100.00
32033;BME280;31720;52.638;9.216;2023-04-02T04:12:07;101467.06;;;2.48;100.00
32033;BME280;31720;52.638;9.216;2023-04-02T04:15:15;101468.75;;;2.52;100.00
32033;BME280;31720;52.638;9.216;2023-04-02T04:18:22;101474.94;;;2.35;100.00
32033;BME280;31720;52.638;9.216;2023-04-02T04:21:30;101477.47;;;2.44;100.00
32033;BME280;31720;52.638;9.216;2023-04-02T04:24:36;101490.44;;;2.47;100.00
32033;BME280;31720;52.638;9.216;2023-04-02T04:27:42;101499.88;;;2.54;100.00
32033;BME280;31720;52.638;9.216;2023-04-02T04:30:49;101502.50;;;2.51;100.00
32033;BME280;31720;52.638;9.216;2023-04-02T04:33:54;101503.38;;;2.48;100.00
32033;BME280;31720;52.638;9.216;2023-04-02T04:37:06;101512.91;;;2.46;100.00
32033;BME280;31720;52.638;9.216;2023-04-02T04:40:22;101524.94;;;2.53;100.00
32033;BME280;31720;52.638;9.216;2023-04-02T04:43:31;101522.41;;;2.50;100.00
32033;BME280;31720;52.638;9.216;2023-04-02T04:46:39;101529.34;;;2.50;100.00
32033;BME280;31720;52.638;9.216;2023-04-02T04:49:44;101535.31;;;2.60;100.00
32033;BME280;31720;52.638;9.216;2023-04-02T04:52:49;101543.16;;;2.50;100.00
32033;BME280;31720;52.638;9.216;2023-04-02T04:55:52;101546.50;;;2.63;100.00
32033;BME280;31720;52.638;9.216;2023-04-02T04:58:58;101552.66;;;2.48;100.00
32033;BME280;31720;52.638;9.216;2023-04-02T05:02:05;101560.47;;;2.47;100.00
32033;BME280;31720;52.638;9.216;2023-04-02T05:05:15;101566.53;;;2.47;100.00
32033;BME280;31720;52.638;9.216;2023-04-02T05:08:23;101566.47;;;2.52;100.00
32033;BME280;31720;52.638;9.216;2023-04-02T05:11:29;101578.63;;;2.50;100.00
32033;BME280;31720;52.638;9.216;2023-04-02T05:14:35;101583.03;;;2.31;100.00
32033;BME280;31720;52.638;9.216;2023-04-02T05:17:42;101586.44;;;2.39;100.00
32033;BME280;31720;52.638;9.216;2023-04-02T05:20:48;101593.38;;;2.36;100.00
32033;BME280;31720;52.638;9.216;2023-04-02T05:23:57;101598.53;;;2.43;100.00
32033;BME280;31720;52.638;9.216;2023-04-02T05:27:04;101603.81;;;2.29;100.00
32033;BME280;31720;52.638;9.216;2023-04-02T05:30:17;101607.25;;;2.33;100.00
32033;BME280;31720;52.638;9.216;2023-04-02T05:33:23;101617.59;;;2.41;100.00
32033;BME280;31720;52.638;9.216;2023-04-02T05:36:27;101627.97;;;2.41;100.00
32033;BME280;31720;52.638;9.216;2023-04-02T05:39:31;101635.75;;;2.35;100.00
32033;BME280;31720;52.638;9.216;2023-04-02T05:42:34;101635.72;;;2.39;100.00
32033;BME280;31720;52.638;9.216;2023-04-02T05:45:39;101641.78;;;2.41;100.00
32033;BME280;31720;52.638;9.216;2023-04-02T05:48:43;101660.00;;;2.32;100.00
32033;BME280;31720;52.638;9.216;2023-04-02T05:51:49;101665.09;;;2.44;100.00
32033;BME280;31720;52.638;9.216;2023-04-02T05:54:57;101672.91;;;2.46;100.00
32033;BME280;31720;52.638;9.216;2023-04-02T05:58:05;101668.56;;;2.46;100.00
32033;BME280;31720;52.638;9.216;2023-04-02T06:01:16;101665.91;;;2.54;100.00
32033;BME280;31720;52.638;9.216;2023-04-02T06:04:24;101678.09;;;2.46;100.00
32033;BME280;31720;52.638;9.216;2023-04-02T06:07:33;101679.75;;;2.53;100.00
32033;BME280;31720;52.638;9.216;2023-04-02T06:10:44;101693.56;;;2.60;100.00
32033;BME280;31720;52.638;9.216;2023-04-02T06:13:47;101691.03;;;2.49;100.00
32033;BME280;31720;52.638;9.216;2023-04-02T06:16:49;101706.59;;;2.52;100.00
32033;BME280;31720;52.638;9.216;2023-04-02T06:19:52;101702.16;;;2.68;100.00
32033;BME280;31720;52.638;9.216;2023-04-02T06:22:56;101705.66;;;2.64;100.00
32033;BME280;31720;52.638;9.216;2023-04-02T06:26:03;101717.72;;;2.74;100.00
32033;BME280;31720;52.638;9.216;2023-04-02T06:29:09;101722.91;;;2.71;100.00
32033;BME280;31720;52.638;9.216;2023-04-02T06:32:14;101728.97;;;2.74;100.00
32033;BME280;31720;52.638;9.216;2023-04-02T06:35:15;101734.13;;;2.79;100.00
32033;BME280;31720;52.638;9.216;2023-04-02T06:38:19;101748.81;;;2.80;100.00
32033;BME280;31720;52.638;9.216;2023-04-02T06:41:24;101756.63;;;2.77;100.00
32033;BME280;31720;52.638;9.216;2023-04-02T06:44:28;101762.69;;;2.77;100.00
32033;BME280;31720;52.638;9.216;2023-04-02T06:47:34;101762.63;;;2.88;100.00
32033;BME280;31720;52.638;9.216;2023-04-02T06:50:43;101770.41;;;2.93;100.00
32033;BME280;31720;52.638;9.216;2023-04-02T06:53:47;101779.91;;;2.97;100.00
32033;BME280;31720;52.638;9.216;2023-04-02T06:56:50;101782.47;;;3.01;100.00
32033;BME280;31720;52.638;9.216;2023-04-02T06:59:52;101788.44;;;3.13;100.00
32033;BME280;31720;52.638;9.216;2023-04-02T07:02:54;101801.47;;;3.07;100.00
32033;BME280;31720;52.638;9.216;2023-04-02T07:05:56;101807.56;;;2.98;100.00
32033;BME280;31720;52.638;9.216;2023-04-02T07:08:59;101805.84;;;3.00;100.00
32033;BME280;31720;52.638;9.216;2023-04-02T07:12:01;101804.91;;;3.09;100.00
32033;BME280;31720;52.638;9.216;2023-04-02T07:15:14;101815.28;;;3.13;100.00
32033;BME280;31720;52.638;9.216;2023-04-02T07:18:22;101820.44;;;3.18;100.00
32033;BME280;31720;52.638;9.216;2023-04-02T07:21:24;101826.53;;;3.18;100.00
32033;BME280;31720;52.638;9.216;2023-04-02T07:24:26;101832.59;;;3.19;100.00
32033;BME280;31720;52.638;9.216;2023-04-02T07:27:29;101837.84;;;3.07;100.00
32033;BME280;31720;52.638;9.216;2023-04-02T07:30:30;101843.03;;;3.10;100.00
32033;BME280;31720;52.638;9.216;2023-04-02T07:33:32;101841.22;;;3.18;100.00
32033;BME280;31720;52.638;9.216;2023-04-02T07:36:34;101850.72;;;3.28;100.00
32033;BME280;31720;52.638;9.216;2023-04-02T07:39:35;101854.16;;;3.28;100.00
32033;BME280;31720;52.638;9.216;2023-04-02T07:42:38;101849.78;;;3.38;100.00
32033;BME280;31720;52.638;9.216;2023-04-02T07:45:39;101855.78;;;3.48;100.00
32033;BME280;31720;52.638;9.216;2023-04-02T07:48:41;101863.56;;;3.52;100.00
32033;BME280;31720;52.638;9.216;2023-04-02T07:51:42;101868.81;;;3.43;100.00
32033;BME280;31720;52.638;9.216;2023-04-02T07:54:43;101876.56;;;3.49;100.00
32033;BME280;31720;52.638;9.216;2023-04-02T07:57:51;101885.22;;;3.54;100.00
32033;BME280;31720;52.638;9.216;2023-04-02T08:00:53;101898.16;;;3.61;100.00
32033;BME280;31720;52.638;9.216;2023-04-02T08:03:55;101893.03;;;3.50;100.00
32033;BME280;31720;52.638;9.216;2023-04-02T08:06:57;101900.88;;;3.42;100.00
32033;BME280;31720;52.638;9.216;2023-04-02T08:09:58;101907.72;;;3.52;100.00
32033;BME280;31720;52.638;9.216;2023-04-02T08:13:01;101905.97;;;3.58;100.00
32033;BME280;31720;52.638;9.216;2023-04-02T08:16:04;101921.50;;;3.67;100.00
32033;BME280;31720;52.638;9.216;2023-04-02T08:19:06;101918.03;;;3.66;100.00
32033;BME280;31720;52.638;9.216;2023-04-02T08:22:07;101931.00;;;3.72;100.00
32033;BME280;31720;52.638;9.216;2023-04-02T08:25:08;101937.03;;;3.82;100.00
32033;BME280;31720;52.638;9.216;2023-04-02T08:28:11;101937.91;;;3.78;100.00
32033;BME280;31720;52.638;9.216;2023-04-02T08:31:13;101949.22;;;3.69;100.00
32033;BME280;31720;52.638;9.216;2023-04-02T08:34:14;101945.81;;;3.64;100.00
32033;BME280;31720;52.638;9.216;2023-04-02T08:37:16;101956.97;;;3.81;100.00
32033;BME280;31720;52.638;9.216;2023-04-02T08:40:22;101962.16;;;3.80;100.00
32033;BME280;31720;52.638;9.216;2023-04-02T08:43:57;101967.38;;;3.77;100.00
32033;BME280;31720;52.638;9.216;2023-04-02T08:47:02;101973.41;;;3.84;100.00
32033;BME280;31720;52.638;9.216;2023-04-02T08:50:12;101984.69;;;3.83;100.00
32033;BME280;31720;52.638;9.216;2023-04-02T08:53:17;101980.31;;;3.91;100.00
32033;BME280;31720;52.638;9.216;2023-04-02T08:56:23;101991.50;;;3.99;100.00
32033;BME280;31720;52.638;9.216;2023-04-02T08:59:31;101991.47;;;4.03;100.00
32033;BME280;31720;52.638;9.216;2023-04-02T09:02:37;102007.84;;;4.21;100.00
32033;BME280;31720;52.638;9.216;2023-04-02T09:05:42;102005.28;;;4.13;100.00
32033;BME280;31720;52.638;9.216;2023-04-02T09:08:46;102013.94;;;4.20;100.00
32033;BME280;31720;52.638;9.216;2023-04-02T09:11:51;102010.41;;;4.28;100.00
32033;BME280;31720;52.638;9.216;2023-04-02T09:15:02;102024.22;;;4.41;100.00
32033;BME280;31720;52.638;9.216;2023-04-02T09:18:12;102025.09;;;4.36;100.00
32033;BME280;31720;52.638;9.216;2023-04-02T09:21:31;102021.66;;;4.30;100.00
32033;BME280;31720;52.638;9.216;2023-04-02T09:24:34;102037.28;;;4.32;100.00
32033;BME280;31720;52.638;9.216;2023-04-02T09:27:36;102038.03;;;4.48;100.00
32033;BME280;31720;52.638;9.216;2023-04-02T09:31:01;102030.97;;;4.62;100.00
32033;BME280;31720;52.638;9.216;2023-04-02T09:34:25;102041.31;;;4.71;100.00
32033;BME280;31720;52.638;9.216;2023-04-02T09:37:28;102055.19;;;4.73;100.00
32033;BME280;31720;52.638;9.216;2023-04-02T09:40:32;102043.84;;;4.82;100.00
32033;BME280;31720;52.638;9.216;2023-04-02T09:43:40;102056.94;;;4.71;100.00
32033;BME280;31720;52.638;9.216;2023-04-02T09:47:04;102058.47;;;4.94;100.00
32033;BME280;31720;52.638;9.216;2023-04-02T09:50:21;102061.13;;;4.91;100.00
32033;BME280;31720;52.638;9.216;2023-04-02T09:53:27;102062.16;;;4.70;100.00
32033;BME280;31720;52.638;9.216;2023-04-02T09:56:31;102067.22;;;4.88;100.00
32033;BME280;31720;52.638;9.216;2023-04-02T09:59:32;102068.06;;;4.90;100.00
32033;BME280;31720;52.638;9.216;2023-04-02T10:02:35;102076.72;;;4.95;100.00
32033;BME280;31720;52.638;9.216;2023-04-02T10:05:37;102074.06;;;4.98;100.00
32033;BME280;31720;52.638;9.216;2023-04-02T10:08:40;102080.09;;;5.03;100.00
32033;BME280;31720;52.638;9.216;2023-04-02T10:11:41;102070.38;;;5.21;100.00
32033;BME280;31720;52.638;9.216;2023-04-02T10:14:45;102070.19;;;5.42;100.00
32033;BME280;31720;52.638;9.216;2023-04-02T10:17:54;102073.47;;;5.58;100.00
32033;BME280;31720;52.638;9.216;2023-04-02T10:20:58;102076.81;;;5.72;100.00
32033;BME280;31720;52.638;9.216;2023-04-02T10:24:01;102082.84;;;5.74;100.00
32033;BME280;31720;52.638;9.216;2023-04-02T10:27:11;102085.44;;;5.76;100.00
32033;BME280;31720;52.638;9.216;2023-04-02T10:30:20;102086.06;;;5.98;100.00
32033;BME280;31720;52.638;9.216;2023-04-02T10:33:28;102094.63;;;6.07;100.00
32033;BME280;31720;52.638;9.216;2023-04-02T10:36:43;102095.19;;;6.31;100.00
32033;BME280;31720;52.638;9.216;2023-04-02T10:39:49;102105.72;;;6.25;100.00
32033;BME280;31720;52.638;9.216;2023-04-02T10:43:04;102103.91;;;6.31;100.00
32033;BME280;31720;52.638;9.216;2023-04-02T10:46:14;102102.75;;;6.51;100.00
32033;BME280;31720;52.638;9.216;2023-04-02T10:49:26;102108.34;;;6.83;100.00
32033;BME280;31720;52.638;9.216;2023-04-02T10:52:33;102116.66;;;7.07;100.00
32033;BME280;31720;52.638;9.216;2023-04-02T10:55:41;102116.63;;;7.10;100.00
32033;BME280;31720;52.638;9.216;2023-04-02T10:58:49;102121.09;;;7.02;100.00
32033;BME280;31720;52.638;9.216;2023-04-02T11:01:54;102120.59;;;6.81;100.00
32033;BME280;31720;52.638;9.216;2023-04-02T11:05:01;102118.25;;;6.61;100.00
32033;BME280;31720;52.638;9.216;2023-04-02T11:08:08;102120.16;;;6.52;100.00
32033;BME280;31720;52.638;9.216;2023-04-02T11:11:13;102119.28;;;6.51;100.00
32033;BME280;31720;52.638;9.216;2023-04-02T11:14:17;102124.69;;;6.38;100.00
32033;BME280;31720;52.638;9.216;2023-04-02T11:17:19;102120.47;;;6.29;100.00
32033;BME280;31720;52.638;9.216;2023-04-02T11:20:53;102121.19;;;6.39;100.00
32033;BME280;31720;52.638;9.216;2023-04-02T11:23:58;102126.16;;;6.57;100.00
32033;BME280;31720;52.638;9.216;2023-04-02T11:27:05;102132.81;;;6.78;100.00
32033;BME280;31720;52.638;9.216;2023-04-02T11:30:20;102142.94;;;6.98;100.00
32033;BME280;31720;52.638;9.216;2023-04-02T11:33:36;102141.06;;;7.07;100.00
32033;BME280;31720;52.638;9.216;2023-04-02T11:37:08;102135.78;;;7.58;100.00
32033;BME280;31720;52.638;9.216;2023-04-02T11:40:45;102139.34;;;8.01;100.00
32033;BME280;31720;52.638;9.216;2023-04-02T11:43:58;102137.22;;;8.20;93.97
32033;BME280;31720;52.638;9.216;2023-04-02T11:47:15;102134.84;;;8.49;100.00
32033;BME280;31720;52.638;9.216;2023-04-02T11:50:27;102135.63;;;8.54;94.25
32033;BME280;31720;52.638;9.216;2023-04-02T11:53:32;102136.97;;;8.72;90.23
32033;BME280;31720;52.638;9.216;2023-04-02T11:56:39;102144.41;;;8.89;90.28
32033;BME280;31720;52.638;9.216;2023-04-02T11:59:52;102138.50;;;9.17;98.74
32033;BME280;31720;52.638;9.216;2023-04-02T12:03:19;102140.28;;;9.49;96.82
32033;BME280;31720;52.638;9.216;2023-04-02T12:06:32;102150.38;;;9.64;87.04
32033;BME280;31720;52.638;9.216;2023-04-02T12:09:44;102143.53;;;9.91;90.02
32033;BME280;31720;52.638;9.216;2023-04-02T12:12:47;102154.28;;;10.13;81.51
32033;BME280;31720;52.638;9.216;2023-04-02T12:15:50;102153.38;;;10.14;83.06
32033;BME280;31720;52.638;9.216;2023-04-02T12:18:52;102147.69;;;10.29;86.45
32033;BME280;31720;52.638;9.216;2023-04-02T12:21:54;102151.59;;;10.46;81.85
32033;BME280;31720;52.638;9.216;2023-04-02T12:25:02;102148.53;;;10.59;80.50
32033;BME280;31720;52.638;9.216;2023-04-02T12:28:05;102144.03;;;10.04;76.97
32033;BME280;31720;52.638;9.216;2023-04-02T12:31:12;102151.22;;;10.28;76.62
32033;BME280;31720;52.638;9.216;2023-04-02T12:34:15;102148.44;;;10.62;78.19
32033;BME280;31720;52.638;9.216;2023-04-02T12:37:23;102162.38;;;10.92;74.28
32033;BME280;31720;52.638;9.216;2023-04-02T12:40:27;102160.84;;;11.13;77.07
32033;BME280;31720;52.638;9.216;2023-04-02T12:43:30;102169.69;;;11.11;75.37
32033;BME280;31720;52.638;9.216;2023-04-02T12:46:32;102167.31;;;10.75;73.59
32033;BME280;31720;52.638;9.216;2023-04-02T12:49:36;102165.38;;;10.82;74.44
32033;BME280;31720;52.638;9.216;2023-04-02T12:52:42;102173.16;;;11.11;74.50
32033;BME280;31720;52.638;9.216;2023-04-02T12:55:46;102182.44;;;11.50;74.02
32033;BME280;31720;52.638;9.216;2023-04-02T12:58:53;102183.66;;;11.13;64.43
32033;BME280;31720;52.638;9.216;2023-04-02T13:01:55;102182.47;;;10.95;68.62
32033;BME280;31720;52.638;9.216;2023-04-02T13:04:59;102186.47;;;11.33;71.47
32033;BME280;31720;52.638;9.216;2023-04-02T13:08:02;102181.31;;;11.30;67.61
32033;BME280;31720;52.638;9.216;2023-04-02T13:11:06;102175.09;;;11.59;66.31
32033;BME280;31720;52.638;9.216;2023-04-02T13:14:16;102170.94;;;11.77;66.51
32033;BME280;31720;52.638;9.216;2023-04-02T13:17:40;102169.84;;;12.08;66.60
32033;BME280;31720;52.638;9.216;2023-04-02T13:20:42;102162.19;;;12.02;64.70
32033;BME280;31720;52.638;9.216;2023-04-02T13:23:55;102181.91;;;11.40;63.68
32033;BME280;31720;52.638;9.216;2023-04-02T13:26:59;102180.03;;;10.89;69.36
32033;BME280;31720;52.638;9.216;2023-04-02T13:30:07;102185.53;;;11.36;67.62
32033;BME280;31720;52.638;9.216;2023-04-02T13:33:08;102186.44;;;11.35;68.88
32033;BME280;31720;52.638;9.216;2023-04-02T13:36:12;102177.81;;;11.30;69.45
32033;BME280;31720;52.638;9.216;2023-04-02T13:39:13;102174.00;;;11.65;65.57
32033;BME280;31720;52.638;9.216;2023-04-02T13:42:16;102175.63;;;11.94;62.88
32033;BME280;31720;52.638;9.216;2023-04-02T13:45:23;102166.25;;;12.10;59.78
32033;BME280;31720;52.638;9.216;2023-04-02T13:48:25;102173.47;;;12.29;62.09
32033;BME280;31720;52.638;9.216;2023-04-02T13:51:33;102181.31;;;11.82;65.23
32033;BME280;31720;52.638;9.216;2023-04-02T13:54:40;102189.97;;;11.85;61.22
32033;BME280;31720;52.638;9.216;2023-04-02T13:57:44;102199.25;;;11.46;62.92
32033;BME280;31720;52.638;9.216;2023-04-02T14:00:46;102195.91;;;11.40;64.05
32033;BME280;31720;52.638;9.216;2023-04-02T14:03:48;102203.50;;;11.50;60.68
32033;BME280;31720;52.638;9.216;2023-04-02T14:07:12;102203.16;;;11.85;63.67
32033;BME280;31720;52.638;9.216;2023-04-02T14:10:25;102199.72;;;11.83;59.38
32033;BME280;31720;52.638;9.216;2023-04-02T14:13:41;102217.38;;;11.55;61.22
32033;BME280;31720;52.638;9.216;2023-04-02T14:16:54;102218.09;;;11.05;57.90
32033;BME280;31720;52.638;9.216;2023-04-02T14:20:10;102211.34;;;10.69;61.55
32033;BME280;31720;52.638;9.216;2023-04-02T14:23:31;102209.03;;;10.58;64.08
32033;BME280;31720;52.638;9.216;2023-04-02T14:26:42;102212.06;;;11.02;64.73
32033;BME280;31720;52.638;9.216;2023-04-02T14:29:54;102211.25;;;11.54;60.29
32033;BME280;31720;52.638;9.216;2023-04-02T14:33:06;102200.41;;;12.13;59.00
32033;BME280;31720;52.638;9.216;2023-04-02T14:36:14;102211.56;;;12.43;57.94
32033;BME280;31720;52.638;9.216;2023-04-02T14:39:23;102214.38;;;12.39;60.36
32033;BME280;31720;52.638;9.216;2023-04-02T14:42:30;102214.34;;;11.92;58.42
32033;BME280;31720;52.638;9.216;2023-04-02T14:45:46;102219.75;;;11.36;61.25
32033;BME280;31720;52.638;9.216;2023-04-02T14:48:55;102221.94;;;11.22;63.06
32033;BME280;31720;52.638;9.216;2023-04-02T14:51:58;102223.16;;;11.11;60.96
32033;BME280;31720;52.638;9.216;2023-04-02T14:55:04;102231.41;;;10.73;61.90
32033;BME280;31720;52.638;9.216;2023-04-02T14:58:14;102237.81;;;10.33;66.35
32033;BME280;31720;52.638;9.216;2023-04-02T15:01:22;102231.38;;;10.43;65.91
32033;BME280;31720;52.638;9.216;2023-04-02T15:04:29;102231.56;;;10.66;63.36
32033;BME280;31720;52.638;9.216;2023-04-02T15:07:35;102231.53;;;10.96;59.58
32033;BME280;31720;52.638;9.216;2023-04-02T15:10:46;102228.53;;;11.08;60.60
32033;BME280;31720;52.638;9.216;2023-04-02T15:13:55;102232.75;;;11.14;63.88
32033;BME280;31720;52.638;9.216;2023-04-02T15:17:01;102232.47;;;11.22;61.41
32033;BME280;31720;52.638;9.216;2023-04-02T15:20:12;102232.25;;;11.56;60.58
32033;BME280;31720;52.638;9.216;2023-04-02T15:23:18;102234.00;;;11.82;61.08
32033;BME280;31720;52.638;9.216;2023-04-02T15:26:25;102232.69;;;11.95;57.59
32033;BME280;31720;52.638;9.216;2023-04-02T15:29:41;102247.91;;;11.06;61.86
32033;BME280;31720;52.638;9.216;2023-04-02T15:32:45;102247.03;;;10.77;60.51
32033;BME280;31720;52.638;9.216;2023-04-02T15:35:51;102258.53;;;10.73;61.59
32033;BME280;31720;52.638;9.216;2023-04-02T15:38:59;102262.97;;;10.41;64.12
32033;BME280;31720;52.638;9.216;2023-04-02T15:42:14;102270.66;;;10.15;64.83
32033;BME280;31720;52.638;9.216;2023-04-02T15:45:28;102267.84;;;10.23;64.60
32033;BME280;31720;52.638;9.216;2023-04-02T15:48:50;102270.59;;;10.80;60.38
32033;BME280;31720;52.638;9.216;2023-04-02T15:52:03;102273.50;;;10.40;61.72
32033;BME280;31720;52.638;9.216;2023-04-02T15:55:16;102263.81;;;10.42;62.73
32033;BME280;31720;52.638;9.216;2023-04-02T15:58:31;102276.13;;;10.71;60.07
32033;BME280;31720;52.638;9.216;2023-04-02T16:01:42;102277.19;;;10.93;57.18
32033;BME280;31720;52.638;9.216;2023-04-02T16:04:52;102281.44;;;10.99;59.45
32033;BME280;31720;52.638;9.216;2023-04-02T16:08:24;102293.97;;;10.89;58.90
32033;BME280;31720;52.638;9.216;2023-04-02T16:11:29;102295.84;;;10.24;60.93
32033;BME280;31720;52.638;9.216;2023-04-02T16:14:30;102296.13;;;10.13;61.01
32033;BME280;31720;52.638;9.216;2023-04-02T16:17:37;102305.25;;;9.98;63.33
32033;BME280;31720;52.638;9.216;2023-04-02T16:20:43;102307.31;;;9.85;63.09
32033;BME280;31720;52.638;9.216;2023-04-02T16:23:47;102311.28;;;10.02;62.59